Time,TemperatureF,DewpointF,PressureIn,WindDirection,WindDirectionDegrees,WindSpeedMPH,WindSpeedGustMPH,Humidity,HourlyPrecipIn,Conditions,Clouds,dailyrainin,SoftwareType,DateUTC
2013-05-13 00:02:00,47.0,30.0,29.91,West,281,0.0,6.0,52,0.00,,,0.02,,2013-05-13 04:02:00,
2013-05-13 00:12:00,47.0,30.0,29.91,West,281,0.0,6.0,52,0.00,,,0.02,,2013-05-13 04:12:00,
2013-05-13 00:23:00,47.0,30.0,29.91,West,277,1.0,3.0,51,0.00,,,0.02,,2013-05-13 04:23:00,
2013-05-13 00:32:00,47.0,31.0,29.91,SW,223,0.0,4.0,53,0.00,,,0.02,,2013-05-13 04:32:00,
2013-05-13 00:42:00,47.0,31.0,29.91,SW,223,0.0,4.0,53,0.00,,,0.02,,2013-05-13 04:42:00,
2013-05-13 00:52:00,46.0,31.0,29.91,SSW,200,1.0,3.0,56,0.00,,,0.02,,2013-05-13 04:52:00,
2013-05-13 01:02:00,46.0,31.0,29.92,WNW,288,0.0,4.0,55,0.00,,,0.02,,2013-05-13 05:02:00,
2013-05-13 01:12:00,46.0,31.0,29.92,WNW,288,0.0,4.0,55,0.00,,,0.02,,2013-05-13 05:12:00,
2013-05-13 01:22:00,46.0,31.0,29.92,WNW,301,1.0,7.0,55,0.00,,,0.02,,2013-05-13 05:22:00,
2013-05-13 01:32:00,45.0,30.0,29.92,NW,304,1.0,4.0,56,0.00,,,0.02,,2013-05-13 05:32:00,
2013-05-13 01:42:00,45.0,30.0,29.92,NW,304,1.0,4.0,56,0.00,,,0.02,,2013-05-13 05:42:00,
2013-05-13 01:52:00,45.0,30.0,29.93,NW,311,1.0,5.0,56,0.00,,,0.02,,2013-05-13 05:52:00,
2013-05-13 02:01:00,45.0,31.0,29.93,WSW,256,1.0,3.0,58,0.00,,,0.02,,2013-05-13 06:01:00,
2013-05-13 02:11:00,45.0,31.0,29.93,WSW,256,1.0,3.0,58,0.00,,,0.02,,2013-05-13 06:11:00,
2013-05-13 02:21:00,44.0,30.0,29.93,West,277,1.0,4.0,58,0.00,,,0.02,,2013-05-13 06:21:00,
2013-05-13 02:32:00,44.0,31.0,29.93,WNW,295,0.0,3.0,59,0.00,,,0.02,,2013-05-13 06:32:00,
2013-05-13 02:42:00,44.0,30.0,29.93,NW,306,1.0,6.0,58,0.00,,,0.02,,2013-05-13 06:42:00,
2013-05-13 02:52:00,44.0,30.0,29.93,NW,306,1.0,6.0,58,0.00,,,0.02,,2013-05-13 06:52:00,
2013-05-13 03:01:00,43.0,30.0,29.92,NW,311,0.0,4.0,59,0.00,,,0.02,,2013-05-13 07:01:00,
2013-05-13 03:11:00,43.0,30.0,29.92,NW,311,0.0,4.0,59,0.00,,,0.02,,2013-05-13 07:11:00,
2013-05-13 03:22:00,43.0,30.0,29.93,West,275,0.0,4.0,60,0.00,,,0.02,,2013-05-13 07:22:00,
2013-05-13 03:32:00,43.0,30.0,29.93,SSW,203,1.0,4.0,60,0.00,,,0.02,,2013-05-13 07:32:00,
2013-05-13 03:42:00,43.0,30.0,29.94,WNW,286,1.0,5.0,61,0.00,,,0.02,,2013-05-13 07:42:00,
2013-05-13 03:52:00,43.0,30.0,29.94,WNW,286,1.0,5.0,61,0.00,,,0.02,,2013-05-13 07:52:00,
2013-05-13 04:02:00,42.0,30.0,29.94,West,276,1.0,5.0,61,0.00,,,0.02,,2013-05-13 08:02:00,
2013-05-13 04:11:00,42.0,30.0,29.94,West,276,1.0,5.0,61,0.00,,,0.02,,2013-05-13 08:11:00,
2013-05-13 04:21:00,42.0,30.0,29.94,WNW,299,1.0,3.0,61,0.00,,,0.02,,2013-05-13 08:21:00,
2013-05-13 04:32:00,42.0,30.0,29.94,WNW,297,0.0,3.0,62,0.00,,,0.02,,2013-05-13 08:32:00,
2013-05-13 04:42:00,42.0,30.0,29.94,WNW,297,0.0,3.0,62,0.00,,,0.02,,2013-05-13 08:42:00,
2013-05-13 04:52:00,41.0,30.0,29.95,West,267,0.0,2.0,64,0.00,,,0.02,,2013-05-13 08:52:00,
2013-05-13 05:01:00,41.0,30.0,29.95,WNW,296,0.0,2.0,65,0.00,,,0.02,,2013-05-13 09:01:00,
2013-05-13 05:11:00,41.0,30.0,29.95,WNW,296,0.0,2.0,65,0.00,,,0.02,,2013-05-13 09:11:00,
2013-05-13 05:21:00,41.0,30.0,29.96,WNW,296,0.0,2.0,65,0.00,,,0.02,,2013-05-13 09:21:00,
2013-05-13 05:33:00,41.0,31.0,29.95,NNW,342,0.0,3.0,67,0.00,,,0.02,,2013-05-13 09:33:00,
2013-05-13 05:42:00,41.0,31.0,29.95,NNW,342,0.0,3.0,67,0.00,,,0.02,,2013-05-13 09:42:00,
2013-05-13 05:52:00,40.0,30.0,29.96,West,267,0.0,2.0,66,0.00,,,0.02,,2013-05-13 09:52:00,
2013-05-13 06:03:00,40.0,31.0,29.97,West,267,0.0,2.0,69,0.00,,,0.02,,2013-05-13 10:03:00,
2013-05-13 06:12:00,40.0,31.0,29.97,West,267,0.0,2.0,69,0.00,,,0.02,,2013-05-13 10:12:00,
2013-05-13 06:22:00,40.0,31.0,29.97,West,268,0.0,2.0,69,0.00,,,0.01,,2013-05-13 10:22:00,
2013-05-13 06:32:00,40.0,31.0,29.97,West,265,0.0,2.0,69,0.00,,,0.01,,2013-05-13 10:32:00,
2013-05-13 06:42:00,40.0,31.0,29.97,West,265,0.0,2.0,69,0.00,,,0.01,,2013-05-13 10:42:00,
2013-05-13 06:52:00,41.0,32.0,29.98,West,265,0.0,2.0,70,0.00,,,0.01,,2013-05-13 10:52:00,
2013-05-13 07:02:00,41.0,32.0,29.98,SW,223,0.0,2.0,71,0.00,,,0.01,,2013-05-13 11:02:00,
2013-05-13 07:12:00,41.0,32.0,29.98,SW,223,0.0,2.0,71,0.00,,,0.01,,2013-05-13 11:12:00,
2013-05-13 07:22:00,41.0,31.0,29.98,West,267,0.0,4.0,68,0.00,,,0.00,,2013-05-13 11:22:00,
2013-05-13 07:32:00,42.0,32.0,29.98,West,267,0.0,4.0,68,0.00,,,0.00,,2013-05-13 11:32:00,
2013-05-13 07:42:00,42.0,32.0,29.98,West,267,0.0,4.0,68,0.00,,,0.00,,2013-05-13 11:42:00,
2013-05-13 07:52:00,43.0,32.0,30.00,WSW,242,1.0,6.0,66,0.00,,,0.00,,2013-05-13 11:52:00,
2013-05-13 08:01:00,43.0,32.0,30.00,NW,306,1.0,4.0,66,0.00,,,0.00,,2013-05-13 12:01:00,
2013-05-13 08:11:00,43.0,32.0,30.00,NW,306,1.0,4.0,66,0.00,,,0.00,,2013-05-13 12:11:00,
2013-05-13 08:21:00,44.0,32.0,30.00,WSW,250,0.0,5.0,63,0.00,,,0.00,,2013-05-13 12:21:00,
2013-05-13 08:32:00,45.0,33.0,30.00,SSE,163,1.0,8.0,62,0.00,,,0.00,,2013-05-13 12:32:00,
2013-05-13 08:42:00,45.0,33.0,30.00,SSE,163,1.0,8.0,62,0.00,,,0.00,,2013-05-13 12:42:00,
2013-05-13 08:52:00,46.0,31.0,30.00,NNW,347,1.0,7.0,56,0.00,,,0.00,,2013-05-13 12:52:00,
2013-05-13 09:01:00,46.0,30.0,30.01,NNW,338,1.0,5.0,54,0.00,,,0.00,,2013-05-13 13:01:00,
2013-05-13 09:11:00,46.0,30.0,30.01,NNW,338,1.0,5.0,54,0.00,,,0.00,,2013-05-13 13:11:00,
2013-05-13 09:21:00,47.0,30.0,30.01,West,264,2.0,11.0,52,0.00,,,0.00,,2013-05-13 13:21:00,
2013-05-13 09:32:00,48.0,31.0,30.02,NW,321,2.0,7.0,51,0.00,,,0.00,,2013-05-13 13:32:00,
2013-05-13 09:42:00,50.0,32.0,30.02,North,349,2.0,7.0,49,0.00,,,0.00,,2013-05-13 13:42:00,
2013-05-13 09:52:00,50.0,32.0,30.02,North,349,2.0,7.0,49,0.00,,,0.00,,2013-05-13 13:52:00,
2013-05-13 10:02:00,52.0,32.0,30.02,North,9,1.0,7.0,46,0.00,,,0.00,,2013-05-13 14:02:00,
2013-05-13 10:11:00,52.0,32.0,30.02,North,9,1.0,7.0,46,0.00,,,0.00,,2013-05-13 14:11:00,
2013-05-13 10:22:00,53.0,31.0,30.02,SW,214,1.0,6.0,42,0.00,,,0.00,,2013-05-13 14:22:00,
2013-05-13 10:32:00,55.0,32.0,30.02,SSE,157,1.0,6.0,42,0.00,,,0.00,,2013-05-13 14:32:00,
2013-05-13 10:41:00,55.0,32.0,30.02,SSE,157,1.0,6.0,42,0.00,,,0.00,,2013-05-13 14:41:00,
2013-05-13 10:52:00,54.0,31.0,30.02,West,271,1.0,3.0,41,0.00,,,0.00,,2013-05-13 14:52:00,
2013-05-13 11:01:00,54.0,30.0,30.02,North,350,1.0,6.0,40,0.00,,,0.00,,2013-05-13 15:01:00,
2013-05-13 11:11:00,54.0,30.0,30.02,North,350,1.0,6.0,40,0.00,,,0.00,,2013-05-13 15:11:00,
2013-05-13 11:21:00,55.0,31.0,30.02,WNW,288,1.0,5.0,39,0.00,,,0.00,,2013-05-13 15:21:00,
2013-05-13 11:32:00,55.0,32.0,30.02,NNW,344,1.0,10.0,41,0.00,,,0.00,,2013-05-13 15:32:00,
2013-05-13 11:42:00,55.0,32.0,30.02,NNW,344,1.0,10.0,41,0.00,,,0.00,,2013-05-13 15:42:00,
2013-05-13 11:53:00,55.0,31.0,30.03,NW,325,2.0,6.0,39,0.00,,,0.00,,2013-05-13 15:53:00,
2013-05-13 12:03:00,54.0,30.0,30.03,WSW,237,2.0,9.0,40,0.00,,,0.00,,2013-05-13 16:03:00,
2013-05-13 12:12:00,54.0,30.0,30.03,WSW,237,2.0,9.0,40,0.00,,,0.00,,2013-05-13 16:12:00,
2013-05-13 12:21:00,57.0,30.0,30.03,SSW,208,2.0,6.0,36,0.00,,,0.00,,2013-05-13 16:21:00,
2013-05-13 12:33:00,56.0,33.0,30.02,WNW,286,1.0,5.0,42,0.00,,,0.00,,2013-05-13 16:33:00,
2013-05-13 12:42:00,57.0,34.0,30.03,WNW,286,1.0,7.0,41,0.00,,,0.00,,2013-05-13 16:42:00,
2013-05-13 12:53:00,57.0,34.0,30.03,WNW,286,1.0,7.0,41,0.00,,,0.00,,2013-05-13 16:53:00,
2013-05-13 13:02:00,56.0,30.0,30.03,WSW,242,0.0,6.0,37,0.00,,,0.00,,2013-05-13 17:02:00,
2013-05-13 13:12:00,56.0,30.0,30.03,WSW,242,0.0,6.0,37,0.00,,,0.00,,2013-05-13 17:12:00,
2013-05-13 13:21:00,54.0,31.0,30.02,SSW,209,2.0,12.0,42,0.00,,,0.00,,2013-05-13 17:21:00,
2013-05-13 13:32:00,54.0,32.0,30.02,SSW,195,2.0,7.0,43,0.00,,,0.00,,2013-05-13 17:32:00,
2013-05-13 13:42:00,54.0,31.0,30.02,NNW,343,0.0,5.0,41,0.00,,,0.00,,2013-05-13 17:42:00,
2013-05-13 13:54:00,54.0,31.0,30.02,NNW,343,0.0,5.0,41,0.00,,,0.00,,2013-05-13 17:54:00,
2013-05-13 14:03:00,56.0,33.0,30.02,North,349,1.0,7.0,41,0.00,,,0.00,,2013-05-13 18:03:00,
2013-05-13 14:13:00,56.0,33.0,30.02,North,349,1.0,7.0,41,0.00,,,0.00,,2013-05-13 18:13:00,
2013-05-13 14:23:00,57.0,29.0,30.02,SW,223,0.0,6.0,34,0.00,,,0.00,,2013-05-13 18:23:00,
2013-05-13 14:32:00,55.0,30.0,30.02,NNW,340,2.0,6.0,38,0.00,,,0.00,,2013-05-13 18:32:00,
2013-05-13 14:42:00,55.0,30.0,30.01,WNW,290,1.0,5.0,38,0.00,,,0.00,,2013-05-13 18:42:00,
2013-05-13 14:52:00,55.0,30.0,30.01,WNW,290,1.0,5.0,38,0.00,,,0.00,,2013-05-13 18:52:00,
2013-05-13 15:01:00,55.0,32.0,30.01,WNW,284,1.0,5.0,41,0.00,,,0.00,,2013-05-13 19:01:00,
2013-05-13 15:11:00,55.0,32.0,30.01,WNW,284,1.0,5.0,41,0.00,,,0.00,,2013-05-13 19:11:00,
2013-05-13 15:22:00,55.0,28.0,30.01,NW,304,1.0,9.0,35,0.00,,,0.00,,2013-05-13 19:22:00,
2013-05-13 15:32:00,55.0,29.0,30.01,NNE,15,3.0,12.0,37,0.00,,,0.00,,2013-05-13 19:32:00,
2013-05-13 15:44:00,55.0,28.0,30.01,NNW,333,4.0,15.0,35,0.00,,,0.00,,2013-05-13 19:44:00,
2013-05-13 15:53:00,55.0,28.0,30.01,NNW,333,4.0,15.0,35,0.00,,,0.00,,2013-05-13 19:53:00,
2013-05-13 16:02:00,53.0,27.0,30.01,SW,236,2.0,9.0,37,0.00,,,0.00,,2013-05-13 20:02:00,
2013-05-13 16:11:00,53.0,27.0,30.01,SW,236,2.0,9.0,37,0.00,,,0.00,,2013-05-13 20:11:00,
2013-05-13 16:23:00,53.0,29.0,30.01,WNW,298,1.0,6.0,39,0.00,,,0.00,,2013-05-13 20:23:00,
2013-05-13 16:34:00,55.0,30.0,30.01,SSW,213,2.0,9.0,38,0.00,,,0.00,,2013-05-13 20:34:00,
2013-05-13 16:44:00,55.0,30.0,30.01,SSW,213,2.0,9.0,38,0.00,,,0.00,,2013-05-13 20:44:00,
2013-05-13 16:53:00,55.0,29.0,30.01,ENE,68,2.0,7.0,37,0.00,,,0.00,,2013-05-13 20:53:00,
2013-05-13 17:03:00,54.0,28.0,30.01,NNE,15,0.0,4.0,37,0.00,,,0.00,,2013-05-13 21:03:00,
2013-05-13 17:14:00,54.0,28.0,30.01,NNE,15,0.0,4.0,37,0.00,,,0.00,,2013-05-13 21:14:00,
2013-05-13 17:23:00,53.0,28.0,30.00,North,355,1.0,6.0,38,0.00,,,0.00,,2013-05-13 21:23:00,
2013-05-13 17:33:00,52.0,28.0,30.00,West,267,2.0,10.0,39,0.00,,,0.00,,2013-05-13 21:33:00,
2013-05-13 17:43:00,52.0,28.0,30.00,West,267,2.0,10.0,39,0.00,,,0.00,,2013-05-13 21:43:00,
2013-05-13 17:53:00,51.0,28.0,30.00,WNW,300,1.0,7.0,40,0.00,,,0.00,,2013-05-13 21:53:00,
2013-05-13 18:02:00,50.0,29.0,30.01,NNW,342,3.0,6.0,44,0.00,,,0.00,,2013-05-13 22:02:00,
2013-05-13 18:12:00,50.0,29.0,30.01,NNW,342,3.0,6.0,44,0.00,,,0.00,,2013-05-13 22:12:00,
2013-05-13 18:23:00,50.0,30.0,30.00,NW,325,1.0,11.0,46,0.00,,,0.00,,2013-05-13 22:23:00,
2013-05-13 18:32:00,51.0,28.0,30.01,NNW,339,2.0,8.0,41,0.00,,,0.00,,2013-05-13 22:32:00,
2013-05-13 18:43:00,50.0,29.0,30.01,NNW,327,0.0,8.0,44,0.00,,,0.00,,2013-05-13 22:43:00,
2013-05-13 18:52:00,50.0,29.0,30.01,NNW,327,0.0,8.0,44,0.00,,,0.00,,2013-05-13 22:52:00,
2013-05-13 19:02:00,49.0,29.0,30.02,NW,321,0.0,5.0,46,0.00,,,0.00,,2013-05-13 23:02:00,
2013-05-13 19:12:00,49.0,29.0,30.02,NW,321,0.0,5.0,46,0.00,,,0.00,,2013-05-13 23:12:00,
2013-05-13 19:23:00,49.0,29.0,30.02,NNW,348,0.0,4.0,46,0.00,,,0.00,,2013-05-13 23:23:00,
2013-05-13 19:33:00,48.0,29.0,30.03,NW,326,0.0,4.0,47,0.00,,,0.00,,2013-05-13 23:33:00,
2013-05-13 19:42:00,48.0,29.0,30.03,NW,326,0.0,4.0,47,0.00,,,0.00,,2013-05-13 23:42:00,
2013-05-13 19:54:00,48.0,30.0,30.04,SE,132,0.0,3.0,50,0.00,,,0.00,,2013-05-13 23:54:00,
2013-05-13 20:02:00,47.0,29.0,30.04,NNE,16,1.0,8.0,49,0.00,,,0.00,,2013-05-14 00:02:00,
2013-05-13 20:13:00,46.0,30.0,30.05,ENE,71,0.0,5.0,53,0.00,,,0.00,,2013-05-14 00:13:00,
2013-05-13 20:22:00,46.0,30.0,30.05,ENE,71,0.0,5.0,53,0.00,,,0.00,,2013-05-14 00:22:00,
2013-05-13 20:32:00,45.0,31.0,30.05,NW,313,0.0,0.0,58,0.00,,,0.00,,2013-05-14 00:32:00,
2013-05-13 20:42:00,45.0,31.0,30.05,NW,313,0.0,0.0,58,0.00,,,0.00,,2013-05-14 00:42:00,
2013-05-13 20:52:00,44.0,31.0,30.05,NW,313,0.0,1.0,61,0.00,,,0.00,,2013-05-14 00:52:00,
2013-05-13 21:02:00,43.0,31.0,30.06,NW,313,0.0,1.0,63,0.00,,,0.00,,2013-05-14 01:02:00,
2013-05-13 21:11:00,43.0,31.0,30.06,NW,313,0.0,1.0,63,0.00,,,0.00,,2013-05-14 01:11:00,
2013-05-13 21:21:00,42.0,32.0,30.07,NW,313,0.0,1.0,67,0.00,,,0.00,,2013-05-14 01:21:00,
2013-05-13 21:32:00,42.0,32.0,30.08,NW,313,0.0,0.0,67,0.00,,,0.00,,2013-05-14 01:32:00,
2013-05-13 21:43:00,42.0,32.0,30.08,NW,313,0.0,0.0,67,0.00,,,0.00,,2013-05-14 01:43:00,
2013-05-13 21:53:00,41.0,31.0,30.09,NW,313,0.0,1.0,68,0.00,,,0.00,,2013-05-14 01:53:00,
2013-05-13 22:02:00,41.0,32.0,30.09,NW,313,0.0,0.0,69,0.00,,,0.00,,2013-05-14 02:02:00,
2013-05-13 22:12:00,40.0,32.0,30.09,NW,313,0.0,0.0,72,0.00,,,0.00,,2013-05-14 02:12:00,
2013-05-13 22:22:00,40.0,32.0,30.09,NW,313,0.0,0.0,72,0.00,,,0.00,,2013-05-14 02:22:00,
2013-05-13 22:32:00,40.0,32.0,30.09,NW,313,0.0,0.0,73,0.00,,,0.00,,2013-05-14 02:32:00,
2013-05-13 22:42:00,40.0,32.0,30.09,NW,313,0.0,0.0,73,0.00,,,0.00,,2013-05-14 02:42:00,
2013-05-13 22:52:00,39.0,31.0,30.10,NW,313,0.0,0.0,74,0.00,,,0.00,,2013-05-14 02:52:00,
2013-05-13 23:01:00,39.0,31.0,30.09,NW,313,0.0,0.0,74,0.00,,,0.00,,2013-05-14 03:01:00,
2013-05-13 23:11:00,39.0,31.0,30.09,NW,313,0.0,0.0,74,0.00,,,0.00,,2013-05-14 03:11:00,
2013-05-13 23:21:00,38.0,31.0,30.09,NW,313,0.0,2.0,75,0.00,,,0.00,,2013-05-14 03:21:00,
2013-05-13 23:33:00,38.0,30.0,30.09,NW,313,0.0,1.0,73,0.00,,,0.00,,2013-05-14 03:33:00,
2013-05-13 23:42:00,38.0,30.0,30.09,NW,313,0.0,1.0,73,0.00,,,0.00,,2013-05-14 03:42:00,
2013-05-13 23:53:00,38.0,30.0,30.09,NW,313,0.0,0.0,73,0.00,,,0.00,,2013-05-14 03:53:00,